createdAt,value
2022-11-24T00:01:19.991Z,35.08
2022-11-24T00:03:53.476Z,34.95
2022-11-24T00:06:22.958Z,36.00
2022-11-24T00:08:51.424Z,34.90
2022-11-24T00:11:20.961Z,35.15
2022-11-24T00:13:49.403Z,34.65
2022-11-24T00:16:19.645Z,35.20
2022-11-24T00:18:49.642Z,36.15
2022-11-24T00:21:19.011Z,35.55
2022-11-24T00:23:50.397Z,35.70
2022-11-24T00:26:20.279Z,36.15
2022-11-24T00:28:49.913Z,35.20
2022-11-24T00:31:20.144Z,37.17
2022-11-24T00:33:49.759Z,35.45
2022-11-24T00:36:19.092Z,35.75
2022-11-24T00:38:49.079Z,35.35
2022-11-24T00:41:17.132Z,34.55
2022-11-24T00:43:45.190Z,35.75
2022-11-24T00:46:13.403Z,34.78
2022-11-24T00:48:41.536Z,33.92
2022-11-24T00:51:11.206Z,34.95
2022-11-24T00:53:39.717Z,33.20
2022-11-24T00:56:10.229Z,33.90
2022-11-24T00:58:39.106Z,34.25
2022-11-24T01:01:09.348Z,34.80
2022-11-24T01:03:37.628Z,34.95
2022-11-24T01:06:07.688Z,35.47
2022-11-24T01:08:37.523Z,35.55
2022-11-24T01:11:16.306Z,34.90
2022-11-24T01:13:46.292Z,35.53
2022-11-24T01:16:20.606Z,34.03
2022-11-24T01:18:50.838Z,33.90
2022-11-24T01:21:20.179Z,34.90
2022-11-24T01:23:48.258Z,34.83
2022-11-24T01:26:20.181Z,33.53
2022-11-24T01:28:48.685Z,34.65
2022-11-24T01:31:17.546Z,33.17
2022-11-24T01:33:45.646Z,32.30
2022-11-24T01:36:13.629Z,33.38
2022-11-24T01:38:41.720Z,34.20
2022-11-24T01:41:12.988Z,34.33
2022-11-24T01:43:43.015Z,35.00
2022-11-24T01:46:20.660Z,33.88
2022-11-24T01:48:56.112Z,34.00
2022-11-24T01:51:26.839Z,34.72
2022-11-24T01:54:01.468Z,35.33
2022-11-24T01:56:31.433Z,35.53
2022-11-24T01:59:03.861Z,35.42
2022-11-24T02:01:33.271Z,35.30
2022-11-24T02:04:04.160Z,33.53
2022-11-24T02:06:34.327Z,34.58
2022-11-24T02:09:08.147Z,33.67
2022-11-24T02:11:39.682Z,33.47
2022-11-24T02:14:12.790Z,34.22
2022-11-24T02:16:44.019Z,35.72
2022-11-24T02:19:19.438Z,34.38
2022-11-24T02:21:47.727Z,33.13
2022-11-24T02:24:22.417Z,33.92
2022-11-24T02:26:52.105Z,32.08
2022-11-24T02:29:20.875Z,32.72
2022-11-24T02:31:52.254Z,33.17
2022-11-24T02:34:20.595Z,31.10
2022-11-24T02:36:48.625Z,30.90
2022-11-24T02:39:17.167Z,29.42
2022-11-24T02:41:48.643Z,29.35
2022-11-24T02:44:20.711Z,29.08
2022-11-24T02:46:49.007Z,27.65
2022-11-24T02:49:17.371Z,25.45
2022-11-24T02:51:46.013Z,23.60
2022-11-24T02:54:14.203Z,23.02
2022-11-24T02:56:42.223Z,19.33
2022-11-24T02:59:10.288Z,21.85
2022-11-24T03:01:40.017Z,23.70
2022-11-24T03:04:08.211Z,27.42
2022-11-24T03:06:38.856Z,29.45
2022-11-24T03:09:07.196Z,28.70
2022-11-24T03:11:36.504Z,31.30
2022-11-24T03:14:05.365Z,31.23
2022-11-24T03:16:33.602Z,31.00
2022-11-24T03:19:03.426Z,32.75
2022-11-24T03:21:31.735Z,33.80
2022-11-24T03:24:00.281Z,33.70
2022-11-24T03:26:28.481Z,33.88
2022-11-24T03:28:57.318Z,35.20
2022-11-24T03:31:26.051Z,35.42
2022-11-24T03:33:54.156Z,36.05
2022-11-24T03:36:23.598Z,35.35
2022-11-24T03:38:51.739Z,34.65
2022-11-24T03:41:19.763Z,36.65
2022-11-24T03:43:47.874Z,37.33
2022-11-24T03:46:16.208Z,36.55
2022-11-24T03:48:44.368Z,36.40
2022-11-24T03:51:12.739Z,36.22
2022-11-24T03:53:42.251Z,37.00
2022-11-24T03:56:10.411Z,37.78
2022-11-24T03:58:40.296Z,36.50
2022-11-24T04:01:08.429Z,35.67
2022-11-24T04:03:36.570Z,36.35
2022-11-24T04:06:04.768Z,34.42
2022-11-24T04:08:32.868Z,33.78
2022-11-24T04:11:02.442Z,33.75
2022-11-24T04:13:29.431Z,35.20
2022-11-24T04:15:57.856Z,34.05
2022-11-24T04:18:25.805Z,33.58
2022-11-24T04:20:56.801Z,34.38
2022-11-24T04:23:24.665Z,34.15
2022-11-24T04:25:52.610Z,33.05
2022-11-24T04:28:22.046Z,33.13
2022-11-24T04:30:50.106Z,34.63
2022-11-24T04:33:18.101Z,34.50
2022-11-24T04:35:46.065Z,33.35
2022-11-24T04:38:13.965Z,34.78
2022-11-24T04:41:03.255Z,34.13
2022-11-24T04:43:39.142Z,33.75
2022-11-24T04:46:12.257Z,33.13
2022-11-24T04:48:40.206Z,33.67
2022-11-24T04:51:08.812Z,33.00
2022-11-24T04:53:36.693Z,33.05
2022-11-24T04:56:06.012Z,33.63
2022-11-24T04:58:35.511Z,32.78
2022-11-24T05:01:07.138Z,32.92
2022-11-24T05:03:35.163Z,32.67
2022-11-24T05:06:03.490Z,31.25
2022-11-24T05:08:31.442Z,32.65
2022-11-24T05:11:04.456Z,33.42
2022-11-24T05:13:32.617Z,32.47
2022-11-24T05:16:02.051Z,32.63
2022-11-24T05:18:30.178Z,33.45
2022-11-24T05:20:59.533Z,33.78
2022-11-24T05:23:27.877Z,32.53
2022-11-24T05:25:55.846Z,32.20
2022-11-24T05:28:23.845Z,32.80
2022-11-24T05:31:01.096Z,32.25
2022-11-24T05:33:33.264Z,32.05
2022-11-24T05:36:03.138Z,31.45
2022-11-24T05:38:31.461Z,31.65
2022-11-24T05:41:07.599Z,31.23
2022-11-24T05:43:36.273Z,30.35
2022-11-24T05:46:04.340Z,30.63
2022-11-24T05:48:33.748Z,30.13
2022-11-24T05:51:06.431Z,30.38
2022-11-24T05:53:37.172Z,30.38
2022-11-24T05:56:05.475Z,30.15
2022-11-24T05:58:33.387Z,30.30
2022-11-24T06:01:01.474Z,30.17
2022-11-24T06:03:29.450Z,29.65
2022-11-24T06:05:58.748Z,30.63
2022-11-24T06:08:30.891Z,30.42
2022-11-24T06:11:17.141Z,29.77
2022-11-24T06:13:46.047Z,31.33
2022-11-24T06:16:14.905Z,30.88
2022-11-24T06:18:43.003Z,32.03
2022-11-24T06:21:12.597Z,30.65
2022-11-24T06:23:41.074Z,30.83
2022-11-24T06:26:09.295Z,31.98
2022-11-24T06:28:37.481Z,30.77
2022-11-24T06:31:07.043Z,30.42
2022-11-24T06:33:35.971Z,30.33
2022-11-24T06:36:05.816Z,30.55
2022-11-24T06:38:48.473Z,30.73
2022-11-24T06:41:18.087Z,29.77
2022-11-24T06:43:47.574Z,29.73
2022-11-24T06:46:15.593Z,30.63
2022-11-24T06:48:45.739Z,29.48
2022-11-24T06:51:17.097Z,30.65
2022-11-24T06:53:46.983Z,30.25
2022-11-24T06:56:19.166Z,30.23
2022-11-24T06:58:49.031Z,30.33
2022-11-24T07:01:17.228Z,30.92
2022-11-24T07:03:45.420Z,31.25
2022-11-24T07:06:13.618Z,30.63
2022-11-24T07:08:41.731Z,31.00
2022-11-24T07:11:15.503Z,31.30
2022-11-24T07:13:44.145Z,31.70
2022-11-24T07:16:14.724Z,31.90
2022-11-24T07:18:43.088Z,30.67
2022-11-24T07:21:11.717Z,29.95
2022-11-24T07:23:40.155Z,30.00
2022-11-24T07:26:11.420Z,29.58
2022-11-24T07:28:39.762Z,29.70
2022-11-24T07:31:08.573Z,30.33
2022-11-24T07:33:37.199Z,29.88
2022-11-24T07:36:07.164Z,29.20
2022-11-24T07:38:35.961Z,29.73
2022-11-24T07:41:05.238Z,30.00
2022-11-24T07:43:36.200Z,28.98
2022-11-24T07:46:05.248Z,30.38
2022-11-24T07:48:33.345Z,31.02
2022-11-24T07:51:01.812Z,28.88
2022-11-24T07:53:30.051Z,28.80
2022-11-24T07:56:00.650Z,30.95
2022-11-24T07:58:32.731Z,29.63
2022-11-24T08:01:10.727Z,29.38
2022-11-24T08:03:39.129Z,30.33
2022-11-24T08:06:25.419Z,30.15
2022-11-24T08:08:56.656Z,29.25
2022-11-24T08:11:25.127Z,29.35
2022-11-24T08:13:53.329Z,29.60
2022-11-24T08:16:22.881Z,29.17
2022-11-24T08:18:51.936Z,30.23
2022-11-24T08:21:20.554Z,29.67
2022-11-24T08:23:48.795Z,29.75
2022-11-24T08:26:19.443Z,29.48
2022-11-24T08:28:54.174Z,30.02
2022-11-24T08:31:24.878Z,29.40
2022-11-24T08:33:56.015Z,29.88
2022-11-24T08:36:26.782Z,30.48
2022-11-24T08:39:04.324Z,30.90
2022-11-24T08:41:35.721Z,31.25
2022-11-24T08:44:08.265Z,30.73
2022-11-24T08:46:38.090Z,30.33
2022-11-24T08:49:07.220Z,31.27
2022-11-24T08:51:35.482Z,31.58
2022-11-24T08:54:06.676Z,31.15
2022-11-24T08:56:34.928Z,29.80
2022-11-24T08:59:03.882Z,29.48
2022-11-24T09:01:32.244Z,29.60
2022-11-24T09:04:01.863Z,29.73
2022-11-24T09:06:31.458Z,31.10
2022-11-24T09:09:00.640Z,30.63
2022-11-24T09:11:29.320Z,30.83
2022-11-24T09:13:57.835Z,31.40
2022-11-24T09:16:28.657Z,30.70
2022-11-24T09:18:57.756Z,35.10
2022-11-24T09:21:38.182Z,30.83
2022-11-24T09:24:07.819Z,31.52
2022-11-24T09:26:40.641Z,31.30
2022-11-24T09:29:14.427Z,32.08
2022-11-24T09:31:42.781Z,30.23
2022-11-24T09:34:14.744Z,30.95
2022-11-24T09:36:44.407Z,31.02
2022-11-24T09:39:12.538Z,31.48
2022-11-24T09:42:01.910Z,31.77
2022-11-24T09:44:46.667Z,30.88
2022-11-24T09:47:21.894Z,30.23
2022-11-24T09:49:56.600Z,31.60
2022-11-24T09:52:40.017Z,31.80
2022-11-24T09:55:28.676Z,31.15
2022-11-24T09:58:07.329Z,32.95
2022-11-24T10:00:37.666Z,30.65
2022-11-24T10:03:15.812Z,31.50
2022-11-24T10:05:44.558Z,31.15
2022-11-24T10:08:27.514Z,32.50
2022-11-24T10:11:03.145Z,30.63
2022-11-24T10:13:59.145Z,30.63
2022-11-24T10:16:47.667Z,31.10
2022-11-24T10:19:37.678Z,31.58
2022-11-24T10:22:27.203Z,32.10
2022-11-24T10:25:10.452Z,31.50
2022-11-24T10:27:46.777Z,32.22
2022-11-24T10:30:21.385Z,31.23
2022-11-24T10:32:51.783Z,31.63
2022-11-24T10:35:48.663Z,30.45
2022-11-24T10:38:30.691Z,30.67
2022-11-24T10:41:06.977Z,29.63
2022-11-24T10:43:35.950Z,32.35
2022-11-24T10:46:12.581Z,31.45
2022-11-24T10:48:45.302Z,32.72
2022-11-24T10:51:46.416Z,31.77
2022-11-24T10:54:20.606Z,31.95
2022-11-24T10:56:53.368Z,33.20
2022-11-24T10:59:28.919Z,34.45
2022-11-24T11:02:01.552Z,33.72
2022-11-24T11:04:32.208Z,33.13
2022-11-24T11:07:27.386Z,32.95
2022-11-24T11:10:22.444Z,32.38
2022-11-24T11:12:56.034Z,32.55
2022-11-24T11:15:26.862Z,31.95
2022-11-24T11:17:59.794Z,33.08
2022-11-24T11:20:30.541Z,32.47
2022-11-24T11:23:01.016Z,30.30
2022-11-24T11:25:33.315Z,32.00
2022-11-24T11:28:28.081Z,32.80
2022-11-24T11:31:18.176Z,32.17
2022-11-24T11:34:09.457Z,32.13
2022-11-24T11:36:45.274Z,32.67
2022-11-24T11:39:26.413Z,32.30
2022-11-24T11:42:04.283Z,32.42
2022-11-24T11:44:40.425Z,32.75
2022-11-24T11:47:19.255Z,31.90
2022-11-24T11:49:57.328Z,31.45
2022-11-24T11:52:52.583Z,32.42
2022-11-24T11:55:49.747Z,31.02
2022-11-24T11:58:35.726Z,29.15
2022-11-24T12:01:16.183Z,31.15
2022-11-24T12:04:05.336Z,29.77
2022-11-24T12:06:52.201Z,30.10
2022-11-24T12:09:40.343Z,29.80
2022-11-24T12:12:29.983Z,30.10
2022-11-24T12:15:10.847Z,30.95
2022-11-24T12:17:45.251Z,30.63
2022-11-24T12:20:33.876Z,31.00
2022-11-24T12:23:14.067Z,33.58
2022-11-24T12:25:52.960Z,30.50
2022-11-24T12:28:33.820Z,30.63
2022-11-24T12:31:09.627Z,29.73
2022-11-24T12:34:11.778Z,30.05
2022-11-24T12:36:53.907Z,29.42
2022-11-24T12:39:58.414Z,29.73
2022-11-24T12:43:30.916Z,30.73
2022-11-24T12:46:14.044Z,29.80
2022-11-24T12:49:23.723Z,30.92
2022-11-24T12:52:33.616Z,31.23
2022-11-24T12:56:09.207Z,31.83
2022-11-24T12:58:45.801Z,32.13
2022-11-24T13:01:30.531Z,33.80
2022-11-24T13:04:08.700Z,36.40
2022-11-24T13:13:11.998Z,32.95
2022-11-24T13:16:36.217Z,33.65
2022-11-24T13:19:23.469Z,32.10
2022-11-24T13:22:51.581Z,32.33
2022-11-24T13:25:23.598Z,33.30
2022-11-24T13:27:53.744Z,32.80
2022-11-24T13:30:56.762Z,33.88
2022-11-24T13:33:40.911Z,33.88
2022-11-24T13:36:32.745Z,35.65
2022-11-24T13:39:01.577Z,34.92
2022-11-24T13:42:42.992Z,33.20
2022-11-24T13:45:01.875Z,34.70
2022-11-24T13:47:35.636Z,34.25
2022-11-24T13:50:06.167Z,36.85
2022-11-24T13:52:48.225Z,35.45
2022-11-24T13:55:30.179Z,34.88
2022-11-24T13:58:01.522Z,35.58
2022-11-24T14:00:31.953Z,33.83
2022-11-24T14:03:04.613Z,33.70
2022-11-24T14:05:39.470Z,33.60
2022-11-24T14:08:17.154Z,32.45
2022-11-24T14:10:45.216Z,32.65
2022-11-24T14:13:34.499Z,33.28
2022-11-24T14:16:07.436Z,34.05
2022-11-24T14:18:36.775Z,34.65
2022-11-24T14:21:23.674Z,33.45
2022-11-24T14:23:55.534Z,33.38
2022-11-24T14:26:25.365Z,33.17
2022-11-24T14:28:54.852Z,34.38
2022-11-24T14:31:25.623Z,34.22
2022-11-24T14:34:15.094Z,33.92
2022-11-24T14:36:43.781Z,32.88
2022-11-24T14:39:17.744Z,32.85
2022-11-24T14:41:53.237Z,33.95
2022-11-24T14:44:24.611Z,34.05
2022-11-24T14:47:01.604Z,34.70
2022-11-24T14:49:29.987Z,34.08
2022-11-24T14:52:02.679Z,35.28
2022-11-24T14:54:33.110Z,34.67
2022-11-24T14:57:04.151Z,35.63
2022-11-24T14:59:36.105Z,34.63
2022-11-24T15:02:24.390Z,35.47
2022-11-24T15:05:03.179Z,35.28
2022-11-24T15:07:31.879Z,34.60
2022-11-24T15:10:02.501Z,35.05
2022-11-24T15:12:34.912Z,35.90
2022-11-24T15:15:05.292Z,33.47
2022-11-24T15:17:34.444Z,34.58
2022-11-24T15:20:10.809Z,34.75
2022-11-24T15:22:41.558Z,34.70
2022-11-24T15:25:32.336Z,34.78
2022-11-24T15:28:00.568Z,33.92
2022-11-24T15:30:29.815Z,33.15
2022-11-24T15:32:59.372Z,33.35
2022-11-24T15:35:30.636Z,34.33
2022-11-24T15:37:58.762Z,34.92
2022-11-24T15:40:26.786Z,33.38
2022-11-24T15:43:01.937Z,33.20
2022-11-24T15:45:35.795Z,33.42
2022-11-24T15:48:03.787Z,32.63
2022-11-24T15:50:31.703Z,33.80
2022-11-24T15:52:59.931Z,33.47
2022-11-24T15:55:27.976Z,32.70
2022-11-24T15:57:57.864Z,32.83
2022-11-24T16:00:26.091Z,31.73
2022-11-24T16:02:54.604Z,32.45
2022-11-24T16:05:22.644Z,33.67
2022-11-24T16:07:51.150Z,31.73
2022-11-24T16:10:25.809Z,31.05
2022-11-24T16:12:53.720Z,32.22
2022-11-24T16:15:22.995Z,31.63
2022-11-24T16:17:51.028Z,32.05
2022-11-24T16:20:19.359Z,31.77
2022-11-24T16:22:47.547Z,32.78
2022-11-24T16:25:16.157Z,29.05
2022-11-24T16:27:44.311Z,30.10
2022-11-24T16:30:14.049Z,30.10
2022-11-24T16:32:43.499Z,30.30
2022-11-24T16:35:11.629Z,29.75
2022-11-24T16:37:39.964Z,30.10
2022-11-24T16:40:11.061Z,30.02
2022-11-24T16:42:39.003Z,28.60
2022-11-24T16:45:07.907Z,29.15
2022-11-24T16:47:41.711Z,29.67
2022-11-24T16:50:12.556Z,30.15
2022-11-24T16:52:40.525Z,29.88
2022-11-24T16:55:09.617Z,29.88
2022-11-24T16:57:37.593Z,29.08
2022-11-24T17:00:06.501Z,29.60
2022-11-24T17:02:35.293Z,28.90
2022-11-24T17:05:03.575Z,30.90
2022-11-24T17:07:34.029Z,30.85
2022-11-24T17:10:02.022Z,30.30
2022-11-24T17:12:30.086Z,32.45
2022-11-24T17:15:30.480Z,30.92
2022-11-24T17:18:08.732Z,33.40
2022-11-24T17:20:36.044Z,32.13
2022-11-24T17:23:05.607Z,30.45
2022-11-24T17:25:33.707Z,32.25
2022-11-24T17:28:01.657Z,31.88
2022-11-24T17:30:29.614Z,31.17
2022-11-24T17:32:58.380Z,31.35
2022-11-24T17:35:26.477Z,31.75
2022-11-24T17:37:56.519Z,33.03
2022-11-24T17:40:28.776Z,31.40
2022-11-24T17:42:59.480Z,31.67
2022-11-24T17:45:27.755Z,32.13
2022-11-24T17:47:56.409Z,31.15
2022-11-24T17:50:26.283Z,31.25
2022-11-24T17:52:54.706Z,30.45
2022-11-24T17:55:22.786Z,31.38
2022-11-24T17:57:52.462Z,31.92
2022-11-24T18:00:21.046Z,31.55
2022-11-24T18:02:49.092Z,31.23
2022-11-24T18:05:17.518Z,31.13
2022-11-24T18:07:45.559Z,32.65
2022-11-24T18:10:13.463Z,32.30
2022-11-24T18:12:41.463Z,32.53
2022-11-24T18:15:11.767Z,31.65
2022-11-24T18:17:39.827Z,32.05
2022-11-24T18:20:09.030Z,32.33
2022-11-24T18:23:03.894Z,32.60
2022-11-24T18:25:25.972Z,31.92
2022-11-24T18:27:53.906Z,34.50
2022-11-24T18:30:23.202Z,30.70
2022-11-24T18:32:51.249Z,32.28
2022-11-24T18:35:19.365Z,33.10
2022-11-24T18:37:47.506Z,30.92
2022-11-24T18:40:15.826Z,31.63
2022-11-24T18:42:43.842Z,31.13
2022-11-24T18:45:12.568Z,32.40
2022-11-24T18:47:42.216Z,31.65
2022-11-24T18:50:10.731Z,30.70
2022-11-24T18:52:38.805Z,30.92
2022-11-24T18:55:08.243Z,31.98
2022-11-24T18:57:36.204Z,31.17
2022-11-24T19:00:05.214Z,30.15
2022-11-24T19:02:33.370Z,29.48
2022-11-24T19:05:03.161Z,29.85
2022-11-24T19:07:31.276Z,30.30
2022-11-24T19:09:59.466Z,28.38
2022-11-24T19:12:27.495Z,30.15
2022-11-24T19:14:56.129Z,30.30
2022-11-24T19:17:24.152Z,30.08
2022-11-24T19:19:52.534Z,30.13
2022-11-24T19:22:22.216Z,31.00
2022-11-24T19:24:50.824Z,30.92
2022-11-24T19:27:21.022Z,30.85
2022-11-24T19:29:49.340Z,32.10
2022-11-24T19:32:19.451Z,30.38
2022-11-24T19:34:47.592Z,30.38
2022-11-24T19:37:16.115Z,31.23
2022-11-24T19:39:45.444Z,32.42
2022-11-24T19:42:13.391Z,32.03
2022-11-24T19:44:41.435Z,31.15
2022-11-24T19:47:09.332Z,33.72
2022-11-24T19:49:37.512Z,32.55
2022-11-24T19:52:05.901Z,31.42
2022-11-24T19:54:35.522Z,31.02
2022-11-24T19:57:05.121Z,31.50
2022-11-24T19:59:33.149Z,31.90
2022-11-24T20:02:02.551Z,31.55
2022-11-24T20:04:32.902Z,32.95
2022-11-24T20:07:01.322Z,31.73
2022-11-24T20:09:29.488Z,31.92
2022-11-24T20:11:58.658Z,30.25
2022-11-24T20:14:28.227Z,31.45
2022-11-24T20:16:56.555Z,31.30
2022-11-24T20:19:26.615Z,31.80
2022-11-24T20:21:54.908Z,31.30
2022-11-24T20:24:24.687Z,32.25
2022-11-24T20:26:56.498Z,31.02
2022-11-24T20:29:25.082Z,31.20
2022-11-24T20:31:56.839Z,30.95
2022-11-24T20:34:26.215Z,33.53
2022-11-24T20:36:54.653Z,33.10
2022-11-24T20:39:26.383Z,32.13
2022-11-24T20:41:55.555Z,31.65
2022-11-24T20:44:25.957Z,33.67
2022-11-24T20:46:56.805Z,32.80
2022-11-24T20:49:25.928Z,34.55
2022-11-24T20:51:55.352Z,35.00
2022-11-24T20:54:25.802Z,34.10
2022-11-24T20:56:53.919Z,33.22
2022-11-24T20:59:23.595Z,33.42
2022-11-24T21:01:55.085Z,33.38
2022-11-24T21:04:26.569Z,33.03
2022-11-24T21:06:55.351Z,33.90
2022-11-24T21:09:29.636Z,34.88
2022-11-24T21:11:58.078Z,32.17
2022-11-24T21:14:30.042Z,32.17
2022-11-24T21:17:01.572Z,34.22
2022-11-24T21:19:31.327Z,33.92
2022-11-24T21:22:01.946Z,33.67
2022-11-24T21:24:31.065Z,33.58
2022-11-24T21:26:59.167Z,32.67
2022-11-24T21:29:27.186Z,33.50
2022-11-24T21:31:55.549Z,34.25
2022-11-24T21:34:23.708Z,34.80
2022-11-24T21:36:55.018Z,34.63
2022-11-24T21:39:23.620Z,35.08
2022-11-24T21:41:51.703Z,34.83
2022-11-24T21:44:19.694Z,36.53
2022-11-24T21:46:52.623Z,34.83
2022-11-24T21:49:23.920Z,35.20
2022-11-24T21:51:55.983Z,35.05
2022-11-24T21:54:24.752Z,35.75
2022-11-24T21:56:54.292Z,35.25
2022-11-24T21:59:22.801Z,35.90
2022-11-24T22:01:50.813Z,36.40
2022-11-24T22:04:18.819Z,35.58
2022-11-24T22:06:46.898Z,35.40
2022-11-24T22:09:18.528Z,34.50
2022-11-24T22:11:49.106Z,35.28
2022-11-24T22:14:17.274Z,36.97
2022-11-24T22:16:45.444Z,36.50
2022-11-24T22:19:13.526Z,36.97
2022-11-24T22:21:41.577Z,37.05
2022-11-24T22:24:10.020Z,36.85
2022-11-24T22:26:39.487Z,37.15
2022-11-24T22:29:08.521Z,36.75
2022-11-24T22:31:36.752Z,36.70
2022-11-24T22:34:04.924Z,37.63
2022-11-24T22:36:33.035Z,37.65
2022-11-24T22:39:03.401Z,37.65
2022-11-24T22:41:32.811Z,38.90
2022-11-24T22:44:02.586Z,42.30
2022-11-24T22:46:32.643Z,38.22
2022-11-24T22:49:01.883Z,38.50
2022-11-24T22:51:32.451Z,40.17
2022-11-24T22:54:02.714Z,39.55
2022-11-24T22:56:32.554Z,39.30
2022-11-24T22:59:03.053Z,40.03
2022-11-24T23:01:33.612Z,40.28
2022-11-24T23:04:03.636Z,39.53
2022-11-24T23:06:33.516Z,38.75
2022-11-24T23:09:03.284Z,38.15
2022-11-24T23:11:37.490Z,37.63
2022-11-24T23:14:09.861Z,38.45
2022-11-24T23:16:37.876Z,37.08
2022-11-24T23:19:06.119Z,37.05
2022-11-24T23:21:38.490Z,36.38
2022-11-24T23:24:08.185Z,38.13
2022-11-24T23:26:37.855Z,37.85
2022-11-24T23:29:07.422Z,38.53
2022-11-24T23:31:35.593Z,38.00
2022-11-24T23:34:05.033Z,38.13
2022-11-24T23:36:33.653Z,37.33
2022-11-24T23:39:05.971Z,36.63
2022-11-24T23:41:34.238Z,37.95
2022-11-24T23:44:02.132Z,36.72
2022-11-24T23:46:31.961Z,37.10
2022-11-24T23:49:00.108Z,37.03
2022-11-24T23:51:29.486Z,36.03
2022-11-24T23:53:58.447Z,35.78
2022-11-24T23:56:28.532Z,36.42
2022-11-24T23:58:56.647Z,35.58
